sensor_id;sensor_type;location;lat;lon;timestamp;pressure;altitude;pressure_sealevel;temperature
71205;BMP180;58935;54.498;18.544;2023-04-01T00:01:06;98783.40;;;3.30
71205;BMP180;58935;54.498;18.544;2023-04-01T00:03:32;98790.80;;;3.30
71205;BMP180;58935;54.498;18.544;2023-04-01T00:05:59;98789.80;;;3.30
71205;BMP180;58935;54.498;18.544;2023-04-01T00:08:25;98794.00;;;3.30
71205;BMP180;58935;54.498;18.544;2023-04-01T00:10:52;98790.40;;;3.30
71205;BMP180;58935;54.498;18.544;2023-04-01T00:13:18;98786.40;;;3.28
71205;BMP180;58935;54.498;18.544;2023-04-01T00:15:44;98787.20;;;3.20
71205;BMP180;58935;54.498;18.544;2023-04-01T00:18:11;98787.00;;;3.10
71205;BMP180;58935;54.498;18.544;2023-04-01T00:20:37;98783.40;;;3.10
71205;BMP180;58935;54.498;18.544;2023-04-01T00:23:03;98782.80;;;3.10
71205;BMP180;58935;54.498;18.544;2023-04-01T00:25:29;98789.20;;;3.00
71205;BMP180;58935;54.498;18.544;2023-04-01T00:27:55;98784.80;;;3.00
71205;BMP180;58935;54.498;18.544;2023-04-01T00:30:20;98775.20;;;3.00
71205;BMP180;58935;54.498;18.544;2023-04-01T00:32:46;98777.00;;;2.90
71205;BMP180;58935;54.498;18.544;2023-04-01T00:35:11;98780.40;;;2.90
71205;BMP180;58935;54.498;18.544;2023-04-01T00:37:38;98781.60;;;2.90
71205;BMP180;58935;54.498;18.544;2023-04-01T00:40:07;98777.40;;;2.88
71205;BMP180;58935;54.498;18.544;2023-04-01T00:42:33;98785.00;;;2.88
71205;BMP180;58935;54.498;18.544;2023-04-01T00:44:58;98782.40;;;2.90
71205;BMP180;58935;54.498;18.544;2023-04-01T00:47:43;98784.60;;;2.90
71205;BMP180;58935;54.498;18.544;2023-04-01T00:50:09;98780.20;;;2.90
71205;BMP180;58935;54.498;18.544;2023-04-01T00:52:35;98782.00;;;2.94
71205;BMP180;58935;54.498;18.544;2023-04-01T00:55:04;98785.00;;;3.00
71205;BMP180;58935;54.498;18.544;2023-04-01T00:57:35;98784.60;;;3.00
71205;BMP180;58935;54.498;18.544;2023-04-01T01:00:05;98785.80;;;3.00
71205;BMP180;58935;54.498;18.544;2023-04-01T01:02:33;98780.60;;;3.00
71205;BMP180;58935;54.498;18.544;2023-04-01T01:05:00;98783.60;;;3.00
71205;BMP180;58935;54.498;18.544;2023-04-01T01:07:31;98791.80;;;3.00
71205;BMP180;58935;54.498;18.544;2023-04-01T01:10:08;98784.00;;;3.00
71205;BMP180;58935;54.498;18.544;2023-04-01T01:27:34;98786.00;;;2.90
71205;BMP180;58935;54.498;18.544;2023-04-01T01:32:34;98784.00;;;2.82
71205;BMP180;58935;54.498;18.544;2023-04-01T01:37:35;98787.40;;;2.80
71205;BMP180;58935;54.498;18.544;2023-04-01T01:40:05;98797.60;;;2.80
71205;BMP180;58935;54.498;18.544;2023-04-01T01:42:35;98799.80;;;2.80
71205;BMP180;58935;54.498;18.544;2023-04-01T01:45:04;98803.60;;;2.80
71205;BMP180;58935;54.498;18.544;2023-04-01T01:47:31;98802.80;;;2.80
71205;BMP180;58935;54.498;18.544;2023-04-01T01:49:59;98804.20;;;2.80
71205;BMP180;58935;54.498;18.544;2023-04-01T01:52:27;98799.40;;;2.80
71205;BMP180;58935;54.498;18.544;2023-04-01T01:54:56;98800.60;;;2.84
71205;BMP180;58935;54.498;18.544;2023-04-01T01:57:27;98796.40;;;2.84
71205;BMP180;58935;54.498;18.544;2023-04-01T01:59:58;98800.20;;;2.90
71205;BMP180;58935;54.498;18.544;2023-04-01T02:02:26;98798.80;;;2.90
71205;BMP180;58935;54.498;18.544;2023-04-01T02:04:52;98797.00;;;2.90
71205;BMP180;58935;54.498;18.544;2023-04-01T02:07:22;98796.60;;;3.00
71205;BMP180;58935;54.498;18.544;2023-04-01T02:09:49;98802.40;;;3.10
71205;BMP180;58935;54.498;18.544;2023-04-01T02:12:16;98802.80;;;3.10
71205;BMP180;58935;54.498;18.544;2023-04-01T02:17:18;98800.80;;;3.18
71205;BMP180;58935;54.498;18.544;2023-04-01T02:19:48;98802.40;;;3.20
71205;BMP180;58935;54.498;18.544;2023-04-01T02:22:20;98794.40;;;3.20
71205;BMP180;58935;54.498;18.544;2023-04-01T02:24:46;98797.20;;;3.20
71205;BMP180;58935;54.498;18.544;2023-04-01T02:27:12;98798.60;;;3.20
71205;BMP180;58935;54.498;18.544;2023-04-01T02:29:38;98799.00;;;3.20
71205;BMP180;58935;54.498;18.544;2023-04-01T02:32:04;98801.20;;;3.20
71205;BMP180;58935;54.498;18.544;2023-04-01T02:34:31;98803.00;;;3.20
71205;BMP180;58935;54.498;18.544;2023-04-01T02:36:57;98799.20;;;3.20
71205;BMP180;58935;54.498;18.544;2023-04-01T02:39:22;98802.60;;;3.20
71205;BMP180;58935;54.498;18.544;2023-04-01T02:41:48;98802.00;;;3.20
71205;BMP180;58935;54.498;18.544;2023-04-01T02:44:15;98800.00;;;3.20
71205;BMP180;58935;54.498;18.544;2023-04-01T02:46:41;98803.60;;;3.20
71205;BMP180;58935;54.498;18.544;2023-04-01T02:49:07;98807.00;;;3.24
71205;BMP180;58935;54.498;18.544;2023-04-01T02:51:33;98801.60;;;3.20
71205;BMP180;58935;54.498;18.544;2023-04-01T02:53:59;98803.20;;;3.20
71205;BMP180;58935;54.498;18.544;2023-04-01T02:56:25;98800.20;;;3.20
71205;BMP180;58935;54.498;18.544;2023-04-01T02:58:51;98803.20;;;3.20
71205;BMP180;58935;54.498;18.544;2023-04-01T03:01:17;98808.20;;;3.20
71205;BMP180;58935;54.498;18.544;2023-04-01T03:03:43;98812.20;;;3.20
71205;BMP180;58935;54.498;18.544;2023-04-01T03:06:10;98816.80;;;3.20
71205;BMP180;58935;54.498;18.544;2023-04-01T03:08:36;98820.60;;;3.20
71205;BMP180;58935;54.498;18.544;2023-04-01T03:11:02;98822.60;;;3.20
71205;BMP180;58935;54.498;18.544;2023-04-01T03:13:27;98824.00;;;3.20
71205;BMP180;58935;54.498;18.544;2023-04-01T03:15:53;98821.00;;;3.18
71205;BMP180;58935;54.498;18.544;2023-04-01T03:18:19;98828.60;;;3.12
71205;BMP180;58935;54.498;18.544;2023-04-01T03:20:45;98825.00;;;3.10
71205;BMP180;58935;54.498;18.544;2023-04-01T03:23:11;98832.00;;;3.10
71205;BMP180;58935;54.498;18.544;2023-04-01T03:25:36;98831.80;;;3.12
71205;BMP180;58935;54.498;18.544;2023-04-01T03:28:02;98836.40;;;3.20
71205;BMP180;58935;54.498;18.544;2023-04-01T03:30:28;98837.60;;;3.20
71205;BMP180;58935;54.498;18.544;2023-04-01T03:32:55;98838.20;;;3.20
71205;BMP180;58935;54.498;18.544;2023-04-01T03:35:21;98835.20;;;3.20
71205;BMP180;58935;54.498;18.544;2023-04-01T03:37:46;98834.80;;;3.20
71205;BMP180;58935;54.498;18.544;2023-04-01T03:40:12;98837.40;;;3.20
71205;BMP180;58935;54.498;18.544;2023-04-01T03:42:37;98837.00;;;3.30
71205;BMP180;58935;54.498;18.544;2023-04-01T03:45:04;98833.80;;;3.30
71205;BMP180;58935;54.498;18.544;2023-04-01T03:47:30;98835.00;;;3.30
71205;BMP180;58935;54.498;18.544;2023-04-01T03:49:55;98829.80;;;3.30
71205;BMP180;58935;54.498;18.544;2023-04-01T03:52:21;98834.40;;;3.30
71205;BMP180;58935;54.498;18.544;2023-04-01T03:54:47;98831.80;;;3.30
71205;BMP180;58935;54.498;18.544;2023-04-01T03:57:13;98830.40;;;3.30
71205;BMP180;58935;54.498;18.544;2023-04-01T03:59:38;98829.20;;;3.40
71205;BMP180;58935;54.498;18.544;2023-04-01T04:02:03;98833.20;;;3.40
71205;BMP180;58935;54.498;18.544;2023-04-01T04:04:30;98827.60;;;3.40
71205;BMP180;58935;54.498;18.544;2023-04-01T04:06:56;98828.60;;;3.40
71205;BMP180;58935;54.498;18.544;2023-04-01T04:09:22;98846.40;;;3.40
71205;BMP180;58935;54.498;18.544;2023-04-01T04:11:48;98842.00;;;3.40
71205;BMP180;58935;54.498;18.544;2023-04-01T04:14:14;98846.40;;;3.40
71205;BMP180;58935;54.498;18.544;2023-04-01T04:16:39;98852.00;;;3.40
71205;BMP180;58935;54.498;18.544;2023-04-01T04:19:05;98857.80;;;3.48
71205;BMP180;58935;54.498;18.544;2023-04-01T04:21:30;98857.80;;;3.50
71205;BMP180;58935;54.498;18.544;2023-04-01T04:23:56;98859.00;;;3.50
71205;BMP180;58935;54.498;18.544;2023-04-01T04:26:21;98854.80;;;3.50
71205;BMP180;58935;54.498;18.544;2023-04-01T04:28:47;98856.00;;;3.50
71205;BMP180;58935;54.498;18.544;2023-04-01T04:31:18;98857.60;;;3.50
71205;BMP180;58935;54.498;18.544;2023-04-01T04:33:45;98855.60;;;3.50
71205;BMP180;58935;54.498;18.544;2023-04-01T04:36:10;98855.20;;;3.60
71205;BMP180;58935;54.498;18.544;2023-04-01T04:38:35;98857.40;;;3.54
71205;BMP180;58935;54.498;18.544;2023-04-01T04:41:01;98861.40;;;3.50
71205;BMP180;58935;54.498;18.544;2023-04-01T04:43:26;98861.40;;;3.50
71205;BMP180;58935;54.498;18.544;2023-04-01T04:45:51;98862.60;;;3.50
71205;BMP180;58935;54.498;18.544;2023-04-01T04:48:17;98863.00;;;3.50
71205;BMP180;58935;54.498;18.544;2023-04-01T04:50:47;98871.60;;;3.50
71205;BMP180;58935;54.498;18.544;2023-04-01T04:53:13;98869.80;;;3.50
71205;BMP180;58935;54.498;18.544;2023-04-01T04:55:43;98874.40;;;3.50
71205;BMP180;58935;54.498;18.544;2023-04-01T04:58:09;98873.80;;;3.50
71205;BMP180;58935;54.498;18.544;2023-04-01T05:00:34;98875.60;;;3.44
71205;BMP180;58935;54.498;18.544;2023-04-01T05:03:00;98871.40;;;3.44
71205;BMP180;58935;54.498;18.544;2023-04-01T05:05:25;98875.20;;;3.42
71205;BMP180;58935;54.498;18.544;2023-04-01T05:07:51;98875.60;;;3.40
71205;BMP180;58935;54.498;18.544;2023-04-01T05:10:16;98872.40;;;3.40
71205;BMP180;58935;54.498;18.544;2023-04-01T05:12:41;98882.80;;;3.40
71205;BMP180;58935;54.498;18.544;2023-04-01T05:15:08;98882.40;;;3.40
71205;BMP180;58935;54.498;18.544;2023-04-01T05:17:34;98886.60;;;3.40
71205;BMP180;58935;54.498;18.544;2023-04-01T05:19:59;98890.20;;;3.38
71205;BMP180;58935;54.498;18.544;2023-04-01T05:22:25;98884.20;;;3.34
71205;BMP180;58935;54.498;18.544;2023-04-01T05:24:50;98886.40;;;3.34
71205;BMP180;58935;54.498;18.544;2023-04-01T05:27:16;98887.00;;;3.32
71205;BMP180;58935;54.498;18.544;2023-04-01T05:29:42;98891.40;;;3.30
71205;BMP180;58935;54.498;18.544;2023-04-01T05:32:07;98894.40;;;3.30
71205;BMP180;58935;54.498;18.544;2023-04-01T05:34:32;98901.00;;;3.30
71205;BMP180;58935;54.498;18.544;2023-04-01T05:36:58;98899.40;;;3.30
71205;BMP180;58935;54.498;18.544;2023-04-01T05:39:23;98902.80;;;3.30
71205;BMP180;58935;54.498;18.544;2023-04-01T05:41:49;98900.80;;;3.30
71205;BMP180;58935;54.498;18.544;2023-04-01T05:44:14;98904.80;;;3.30
71205;BMP180;58935;54.498;18.544;2023-04-01T05:46:40;98907.00;;;3.30
71205;BMP180;58935;54.498;18.544;2023-04-01T05:49:06;98907.80;;;3.30
71205;BMP180;58935;54.498;18.544;2023-04-01T05:51:31;98910.00;;;3.30
71205;BMP180;58935;54.498;18.544;2023-04-01T05:53:57;98913.00;;;3.28
71205;BMP180;58935;54.498;18.544;2023-04-01T05:56:22;98913.00;;;3.22
71205;BMP180;58935;54.498;18.544;2023-04-01T05:58:51;98914.20;;;3.20
71205;BMP180;58935;54.498;18.544;2023-04-01T06:01:18;98927.40;;;3.20
71205;BMP180;58935;54.498;18.544;2023-04-01T06:03:44;98922.20;;;3.20
71205;BMP180;58935;54.498;18.544;2023-04-01T06:06:13;98925.80;;;3.24
71205;BMP180;58935;54.498;18.544;2023-04-01T06:08:41;98928.40;;;3.22
71205;BMP180;58935;54.498;18.544;2023-04-01T06:11:12;98932.60;;;3.20
71205;BMP180;58935;54.498;18.544;2023-04-01T06:16:24;98935.80;;;3.20
71205;BMP180;58935;54.498;18.544;2023-04-01T06:19:07;98941.60;;;3.20
71205;BMP180;58935;54.498;18.544;2023-04-01T06:21:51;98949.00;;;3.20
71205;BMP180;58935;54.498;18.544;2023-04-01T06:24:30;98951.80;;;3.20
71205;BMP180;58935;54.498;18.544;2023-04-01T06:27:59;98950.80;;;3.20
71205;BMP180;58935;54.498;18.544;2023-04-01T06:32:28;98962.40;;;3.20
71205;BMP180;58935;54.498;18.544;2023-04-01T06:35:11;98964.60;;;3.14
71205;BMP180;58935;54.498;18.544;2023-04-01T06:45:28;98965.60;;;3.04
71205;BMP180;58935;54.498;18.544;2023-04-01T06:50:28;98971.20;;;3.00
71205;BMP180;58935;54.498;18.544;2023-04-01T06:55:32;98975.00;;;3.00
71205;BMP180;58935;54.498;18.544;2023-04-01T06:58:04;98982.00;;;3.00
71205;BMP180;58935;54.498;18.544;2023-04-01T07:00:35;98980.20;;;3.00
71205;BMP180;58935;54.498;18.544;2023-04-01T07:05:31;98986.00;;;2.90
71205;BMP180;58935;54.498;18.544;2023-04-01T07:07:59;98985.40;;;2.90
71205;BMP180;58935;54.498;18.544;2023-04-01T07:12:58;98999.40;;;2.90
71205;BMP180;58935;54.498;18.544;2023-04-01T07:15:31;99003.20;;;2.94
71205;BMP180;58935;54.498;18.544;2023-04-01T07:18:03;99008.40;;;2.90
71205;BMP180;58935;54.498;18.544;2023-04-01T07:20:32;99011.00;;;2.92
71205;BMP180;58935;54.498;18.544;2023-04-01T07:22:59;99013.40;;;2.96
71205;BMP180;58935;54.498;18.544;2023-04-01T07:25:30;99023.20;;;2.94
71205;BMP180;58935;54.498;18.544;2023-04-01T07:28:00;99021.60;;;2.98
71205;BMP180;58935;54.498;18.544;2023-04-01T07:30:32;99033.60;;;2.90
71205;BMP180;58935;54.498;18.544;2023-04-01T07:33:03;99031.60;;;2.90
71205;BMP180;58935;54.498;18.544;2023-04-01T07:35:37;99038.80;;;2.90
71205;BMP180;58935;54.498;18.544;2023-04-01T07:40:41;99034.80;;;2.90
71205;BMP180;58935;54.498;18.544;2023-04-01T07:45:51;99041.80;;;2.90
71205;BMP180;58935;54.498;18.544;2023-04-01T07:58:33;99058.00;;;2.90
71205;BMP180;58935;54.498;18.544;2023-04-01T08:14:01;99077.40;;;2.88
71205;BMP180;58935;54.498;18.544;2023-04-01T08:16:35;99078.00;;;2.84
71205;BMP180;58935;54.498;18.544;2023-04-01T08:21:35;99082.80;;;2.90
71205;BMP180;58935;54.498;18.544;2023-04-01T08:24:10;99085.00;;;2.80
71205;BMP180;58935;54.498;18.544;2023-04-01T08:26:40;99091.80;;;2.80
71205;BMP180;58935;54.498;18.544;2023-04-01T08:29:16;99097.80;;;2.82
71205;BMP180;58935;54.498;18.544;2023-04-01T08:34:19;99099.00;;;2.88
71205;BMP180;58935;54.498;18.544;2023-04-01T08:36:50;99099.80;;;2.90
71205;BMP180;58935;54.498;18.544;2023-04-01T08:39:29;99101.60;;;2.90
71205;BMP180;58935;54.498;18.544;2023-04-01T08:42:04;99103.80;;;2.90
71205;BMP180;58935;54.498;18.544;2023-04-01T08:48:13;99111.20;;;2.90
71205;BMP180;58935;54.498;18.544;2023-04-01T08:52:33;99110.00;;;2.90
71205;BMP180;58935;54.498;18.544;2023-04-01T09:07:42;99128.40;;;3.00
71205;BMP180;58935;54.498;18.544;2023-04-01T10:06:10;99191.40;;;2.90
71205;BMP180;58935;54.498;18.544;2023-04-01T10:26:38;99212.40;;;2.90
71205;BMP180;58935;54.498;18.544;2023-04-01T10:34:27;99231.40;;;2.90
71205;BMP180;58935;54.498;18.544;2023-04-01T10:42:27;99233.20;;;2.80
71205;BMP180;58935;54.498;18.544;2023-04-01T10:57:55;99245.00;;;2.72
71205;BMP180;58935;54.498;18.544;2023-04-01T11:08:08;99256.60;;;2.70
71205;BMP180;58935;54.498;18.544;2023-04-01T11:28:35;99270.00;;;2.80
71205;BMP180;58935;54.498;18.544;2023-04-01T11:33:39;99286.00;;;2.86
71205;BMP180;58935;54.498;18.544;2023-04-01T11:46:27;99296.80;;;3.00
71205;BMP180;58935;54.498;18.544;2023-04-01T11:54:35;99306.00;;;3.00
71205;BMP180;58935;54.498;18.544;2023-04-01T11:56:52;99301.80;;;3.00
71205;BMP180;58935;54.498;18.544;2023-04-01T12:09:31;99317.60;;;2.80
71205;BMP180;58935;54.498;18.544;2023-04-01T12:14:39;99319.20;;;2.70
71205;BMP180;58935;54.498;18.544;2023-04-01T12:22:28;99326.60;;;2.68
71205;BMP180;58935;54.498;18.544;2023-04-01T12:32:28;99330.20;;;2.56
71205;BMP180;58935;54.498;18.544;2023-04-01T12:34:59;99329.40;;;2.50
71205;BMP180;58935;54.498;18.544;2023-04-01T12:38:04;99335.80;;;2.50
71205;BMP180;58935;54.498;18.544;2023-04-01T12:45:35;99347.60;;;2.48
71205;BMP180;58935;54.498;18.544;2023-04-01T12:48:08;99355.00;;;2.50
71205;BMP180;58935;54.498;18.544;2023-04-01T12:50:45;99366.20;;;2.40
71205;BMP180;58935;54.498;18.544;2023-04-01T12:55:48;99365.60;;;2.40
71205;BMP180;58935;54.498;18.544;2023-04-01T13:03:29;99373.80;;;2.38
71205;BMP180;58935;54.498;18.544;2023-04-01T13:06:07;99381.00;;;2.30
71205;BMP180;58935;54.498;18.544;2023-04-01T13:08:51;99384.80;;;2.30
71205;BMP180;58935;54.498;18.544;2023-04-01T13:16:29;99396.80;;;2.30
71205;BMP180;58935;54.498;18.544;2023-04-01T13:19:03;99400.80;;;2.30
71205;BMP180;58935;54.498;18.544;2023-04-01T13:21:34;99406.40;;;2.30
71205;BMP180;58935;54.498;18.544;2023-04-01T13:24:10;99409.60;;;2.30
71205;BMP180;58935;54.498;18.544;2023-04-01T13:29:18;99415.80;;;2.30
71205;BMP180;58935;54.498;18.544;2023-04-01T13:31:55;99419.20;;;2.30
71205;BMP180;58935;54.498;18.544;2023-04-01T13:37:02;99423.80;;;2.30
71205;BMP180;58935;54.498;18.544;2023-04-01T13:39:40;99420.20;;;2.30
71205;BMP180;58935;54.498;18.544;2023-04-01T13:42:18;99425.00;;;2.40
71205;BMP180;58935;54.498;18.544;2023-04-01T13:44:54;99423.00;;;2.40
71205;BMP180;58935;54.498;18.544;2023-04-01T13:53:00;99436.40;;;2.40
71205;BMP180;58935;54.498;18.544;2023-04-01T14:05:28;99443.80;;;2.40
71205;BMP180;58935;54.498;18.544;2023-04-01T14:08:04;99447.80;;;2.42
71205;BMP180;58935;54.498;18.544;2023-04-01T14:15:48;99456.60;;;2.40
71205;BMP180;58935;54.498;18.544;2023-04-01T14:31:18;99464.40;;;2.40
71205;BMP180;58935;54.498;18.544;2023-04-01T14:41:35;99479.80;;;2.44
71205;BMP180;58935;54.498;18.544;2023-04-01T14:47:43;99481.40;;;2.50
71205;BMP180;58935;54.498;18.544;2023-04-01T14:49:42;99484.20;;;2.42
71205;BMP180;58935;54.498;18.544;2023-04-01T14:54:44;99496.80;;;2.40
71205;BMP180;58935;54.498;18.544;2023-04-01T14:57:13;99497.80;;;2.40
71205;BMP180;58935;54.498;18.544;2023-04-01T14:59:47;99496.60;;;2.40
71205;BMP180;58935;54.498;18.544;2023-04-01T15:02:23;99496.80;;;2.40
71205;BMP180;58935;54.498;18.544;2023-04-01T15:05:15;99502.80;;;2.40
71205;BMP180;58935;54.498;18.544;2023-04-01T15:10:34;99509.00;;;2.40
71205;BMP180;58935;54.498;18.544;2023-04-01T15:13:15;99507.20;;;2.40
71205;BMP180;58935;54.498;18.544;2023-04-01T15:15:49;99517.60;;;2.40
71205;BMP180;58935;54.498;18.544;2023-04-01T15:18:31;99516.40;;;2.40
71205;BMP180;58935;54.498;18.544;2023-04-01T15:21:09;99523.80;;;2.40
71205;BMP180;58935;54.498;18.544;2023-04-01T15:26:17;99527.80;;;2.40
71205;BMP180;58935;54.498;18.544;2023-04-01T15:29:31;99526.60;;;2.40
71205;BMP180;58935;54.498;18.544;2023-04-01T15:34:32;99542.60;;;2.40
71205;BMP180;58935;54.498;18.544;2023-04-01T15:52:35;99577.40;;;2.40
71205;BMP180;58935;54.498;18.544;2023-04-01T15:58:01;99581.40;;;2.34
71205;BMP180;58935;54.498;18.544;2023-04-01T16:00:33;99585.20;;;2.36
71205;BMP180;58935;54.498;18.544;2023-04-01T16:03:17;99595.80;;;2.38
71205;BMP180;58935;54.498;18.544;2023-04-01T16:06:03;99592.80;;;2.38
71205;BMP180;58935;54.498;18.544;2023-04-01T16:12:15;99603.80;;;2.38
71205;BMP180;58935;54.498;18.544;2023-04-01T16:14:11;99623.00;;;2.38
71205;BMP180;58935;54.498;18.544;2023-04-01T16:16:52;99615.40;;;2.30
71205;BMP180;58935;54.498;18.544;2023-04-01T16:19:27;99621.20;;;2.30
71205;BMP180;58935;54.498;18.544;2023-04-01T16:21:58;99624.40;;;2.30
71205;BMP180;58935;54.498;18.544;2023-04-01T16:27:04;99640.80;;;2.30
71205;BMP180;58935;54.498;18.544;2023-04-01T16:29:40;99638.00;;;2.30
71205;BMP180;58935;54.498;18.544;2023-04-01T16:32:14;99642.20;;;2.30
71205;BMP180;58935;54.498;18.544;2023-04-01T16:37:20;99638.80;;;2.30
71205;BMP180;58935;54.498;18.544;2023-04-01T16:39:52;99644.80;;;2.26
71205;BMP180;58935;54.498;18.544;2023-04-01T16:42:28;99644.40;;;2.28
71205;BMP180;58935;54.498;18.544;2023-04-01T16:45:06;99655.00;;;2.28
71205;BMP180;58935;54.498;18.544;2023-04-01T16:47:47;99661.00;;;2.20
71205;BMP180;58935;54.498;18.544;2023-04-01T16:53:14;99662.40;;;2.20
71205;BMP180;58935;54.498;18.544;2023-04-01T16:55:50;99668.60;;;2.24
71205;BMP180;58935;54.498;18.544;2023-04-01T16:58:24;99675.40;;;2.26
71205;BMP180;58935;54.498;18.544;2023-04-01T17:00:58;99678.00;;;2.20
71205;BMP180;58935;54.498;18.544;2023-04-01T17:03:31;99684.80;;;2.20
71205;BMP180;58935;54.498;18.544;2023-04-01T17:08:50;99691.00;;;2.20
71205;BMP180;58935;54.498;18.544;2023-04-01T17:11:22;99694.60;;;2.20
71205;BMP180;58935;54.498;18.544;2023-04-01T17:14:02;99704.60;;;2.20
71205;BMP180;58935;54.498;18.544;2023-04-01T17:24:22;99716.00;;;2.20
71205;BMP180;58935;54.498;18.544;2023-04-01T17:27:01;99721.80;;;2.20
71205;BMP180;58935;54.498;18.544;2023-04-01T17:29:40;99724.60;;;2.20
71205;BMP180;58935;54.498;18.544;2023-04-01T17:32:14;99736.60;;;2.20
71205;BMP180;58935;54.498;18.544;2023-04-01T17:34:54;99731.80;;;2.20
71205;BMP180;58935;54.498;18.544;2023-04-01T17:45:50;99751.00;;;2.20
71205;BMP180;58935;54.498;18.544;2023-04-01T17:58:46;99770.20;;;2.20
71205;BMP180;58935;54.498;18.544;2023-04-01T18:01:40;99765.00;;;2.22
71205;BMP180;58935;54.498;18.544;2023-04-01T18:04:17;99768.40;;;2.26
71205;BMP180;58935;54.498;18.544;2023-04-01T18:09:34;99770.80;;;2.30
71205;BMP180;58935;54.498;18.544;2023-04-01T18:12:07;99783.00;;;2.30
71205;BMP180;58935;54.498;18.544;2023-04-01T18:14:42;99788.20;;;2.30
71205;BMP180;58935;54.498;18.544;2023-04-01T18:18:19;99783.60;;;2.30
71205;BMP180;58935;54.498;18.544;2023-04-01T18:20:24;99787.80;;;2.30
71205;BMP180;58935;54.498;18.544;2023-04-01T18:22:57;99800.00;;;2.30
71205;BMP180;58935;54.498;18.544;2023-04-01T18:25:30;99806.40;;;2.30
71205;BMP180;58935;54.498;18.544;2023-04-01T18:28:14;99803.60;;;2.30
71205;BMP180;58935;54.498;18.544;2023-04-01T18:30:44;99800.40;;;2.30
71205;BMP180;58935;54.498;18.544;2023-04-01T18:36:09;99807.00;;;2.34
71205;BMP180;58935;54.498;18.544;2023-04-01T18:38:44;99811.60;;;2.40
71205;BMP180;58935;54.498;18.544;2023-04-01T18:41:15;99814.40;;;2.40
71205;BMP180;58935;54.498;18.544;2023-04-01T18:43:53;99819.80;;;2.40
71205;BMP180;58935;54.498;18.544;2023-04-01T18:48:57;99820.80;;;2.40
71205;BMP180;58935;54.498;18.544;2023-04-01T18:54:05;99829.60;;;2.40
71205;BMP180;58935;54.498;18.544;2023-04-01T18:56:37;99826.20;;;2.40
71205;BMP180;58935;54.498;18.544;2023-04-01T18:59:12;99830.60;;;2.40
71205;BMP180;58935;54.498;18.544;2023-04-01T19:04:26;99840.60;;;2.40
71205;BMP180;58935;54.498;18.544;2023-04-01T19:06:58;99832.80;;;2.40
71205;BMP180;58935;54.498;18.544;2023-04-01T19:09:31;99848.60;;;2.40
71205;BMP180;58935;54.498;18.544;2023-04-01T19:17:19;99854.20;;;2.40
71205;BMP180;58935;54.498;18.544;2023-04-01T19:19:56;99861.80;;;2.40
71205;BMP180;58935;54.498;18.544;2023-04-01T19:22:39;99859.60;;;2.40
71205;BMP180;58935;54.498;18.544;2023-04-01T19:25:12;99872.40;;;2.40
71205;BMP180;58935;54.498;18.544;2023-04-01T19:27:46;99877.80;;;2.40
71205;BMP180;58935;54.498;18.544;2023-04-01T19:32:59;99880.40;;;2.40
71205;BMP180;58935;54.498;18.544;2023-04-01T19:35:42;99880.20;;;2.38
71205;BMP180;58935;54.498;18.544;2023-04-01T19:38:19;99877.00;;;2.36
71205;BMP180;58935;54.498;18.544;2023-04-01T19:45:54;99894.20;;;2.34
71205;BMP180;58935;54.498;18.544;2023-04-01T19:48:43;99902.40;;;2.30
71205;BMP180;58935;54.498;18.544;2023-04-01T19:51:20;99897.00;;;2.30
71205;BMP180;58935;54.498;18.544;2023-04-01T19:53:53;99903.80;;;2.30
71205;BMP180;58935;54.498;18.544;2023-04-01T19:56:23;99906.40;;;2.30
71205;BMP180;58935;54.498;18.544;2023-04-01T20:00:31;99910.20;;;2.34
71205;BMP180;58935;54.498;18.544;2023-04-01T20:01:48;99917.00;;;2.32
71205;BMP180;58935;54.498;18.544;2023-04-01T20:04:22;99919.80;;;2.40
71205;BMP180;58935;54.498;18.544;2023-04-01T20:07:10;99929.20;;;2.36
71205;BMP180;58935;54.498;18.544;2023-04-01T20:10:14;99934.20;;;2.30
71205;BMP180;58935;54.498;18.544;2023-04-01T20:12:32;99933.40;;;2.30
71205;BMP180;58935;54.498;18.544;2023-04-01T20:15:04;99943.00;;;2.26
71205;BMP180;58935;54.498;18.544;2023-04-01T20:17:45;99946.20;;;2.20
71205;BMP180;58935;54.498;18.544;2023-04-01T20:20:19;99956.00;;;2.20
71205;BMP180;58935;54.498;18.544;2023-04-01T20:23:04;99954.00;;;2.10
71205;BMP180;58935;54.498;18.544;2023-04-01T20:25:38;99955.40;;;2.10
71205;BMP180;58935;54.498;18.544;2023-04-01T20:38:19;99965.60;;;1.90
71205;BMP180;58935;54.498;18.544;2023-04-01T20:40:50;99982.20;;;1.80
71205;BMP180;58935;54.498;18.544;2023-04-01T20:43:23;99983.80;;;1.80
71205;BMP180;58935;54.498;18.544;2023-04-01T20:45:57;99987.00;;;1.70
71205;BMP180;58935;54.498;18.544;2023-04-01T20:51:15;99996.40;;;1.60
71205;BMP180;58935;54.498;18.544;2023-04-01T20:53:51;99990.40;;;1.60
71205;BMP180;58935;54.498;18.544;2023-04-01T20:59:02;100001.80;;;1.50
71205;BMP180;58935;54.498;18.544;2023-04-01T21:04:10;100001.20;;;1.44
71205;BMP180;58935;54.498;18.544;2023-04-01T21:09:29;100008.00;;;1.46
71205;BMP180;58935;54.498;18.544;2023-04-01T21:14:44;100014.40;;;1.40
71205;BMP180;58935;54.498;18.544;2023-04-01T21:17:17;100019.20;;;1.40
71205;BMP180;58935;54.498;18.544;2023-04-01T21:19:53;100021.00;;;1.40
71205;BMP180;58935;54.498;18.544;2023-04-01T21:25:32;100024.80;;;1.30
71205;BMP180;58935;54.498;18.544;2023-04-01T21:30:28;100022.00;;;1.30
71205;BMP180;58935;54.498;18.544;2023-04-01T21:35:34;100028.20;;;1.30
71205;BMP180;58935;54.498;18.544;2023-04-01T21:38:07;100021.00;;;1.30
71205;BMP180;58935;54.498;18.544;2023-04-01T21:40:44;100025.20;;;1.30
71205;BMP180;58935;54.498;18.544;2023-04-01T21:46:01;100027.60;;;1.32
71205;BMP180;58935;54.498;18.544;2023-04-01T21:51:16;100033.00;;;1.32
71205;BMP180;58935;54.498;18.544;2023-04-01T21:56:49;100041.20;;;1.42
71205;BMP180;58935;54.498;18.544;2023-04-01T22:07:06;100059.20;;;1.60
71205;BMP180;58935;54.498;18.544;2023-04-01T22:12:22;100056.60;;;1.60
71205;BMP180;58935;54.498;18.544;2023-04-01T22:15:04;100056.40;;;1.60
71205;BMP180;58935;54.498;18.544;2023-04-01T22:20:27;100061.40;;;1.50
71205;BMP180;58935;54.498;18.544;2023-04-01T22:25:31;100077.20;;;1.40
71205;BMP180;58935;54.498;18.544;2023-04-01T22:28:07;100078.40;;;1.40
71205;BMP180;58935;54.498;18.544;2023-04-01T22:30:41;100074.40;;;1.40
71205;BMP180;58935;54.498;18.544;2023-04-01T22:33:16;100077.80;;;1.36
71205;BMP180;58935;54.498;18.544;2023-04-01T22:35:57;100075.80;;;1.30